createdAt,value
2017-06-20T00:00:06.973Z,1010.03
2017-06-20T00:01:06.951Z,1010.03
2017-06-20T00:02:06.937Z,1010.02
2017-06-20T00:03:06.924Z,1010.05
2017-06-20T00:04:06.914Z,1009.99
2017-06-20T00:05:06.909Z,1010.03
2017-06-20T00:06:06.895Z,1010.04
2017-06-20T00:07:06.888Z,1010.01
2017-06-20T00:08:06.874Z,1010.02
2017-06-20T00:09:06.863Z,1010.04
2017-06-20T00:10:06.850Z,1010.03
2017-06-20T00:11:06.842Z,1010.03
2017-06-20T00:12:06.832Z,1010.05
2017-06-20T00:13:32.493Z,1010.02
2017-06-20T00:15:06.800Z,1010
2017-06-20T00:16:06.792Z,1009.99
2017-06-20T00:17:06.777Z,1009.96
2017-06-20T00:18:06.764Z,1009.95
2017-06-20T00:19:06.754Z,1009.93
2017-06-20T00:20:06.742Z,1009.93
2017-06-20T00:21:06.729Z,1009.9
2017-06-20T00:22:06.721Z,1009.94
2017-06-20T00:23:06.716Z,1009.91
2017-06-20T00:24:06.699Z,1009.9
2017-06-20T00:25:06.692Z,1009.91
2017-06-20T00:26:06.677Z,1009.91
2017-06-20T00:27:06.668Z,1009.93
2017-06-20T00:28:06.659Z,1009.89
2017-06-20T00:29:06.641Z,1009.92
2017-06-20T00:30:06.632Z,1009.93
2017-06-20T00:31:06.623Z,1009.9
2017-06-20T00:32:06.613Z,1009.91
2017-06-20T00:33:06.597Z,1009.89
2017-06-20T00:34:06.593Z,1009.86
2017-06-20T00:35:06.582Z,1009.87
2017-06-20T00:36:06.566Z,1009.91
2017-06-20T00:37:06.559Z,1009.88
2017-06-20T00:38:06.543Z,1009.88
2017-06-20T00:39:06.535Z,1009.87
2017-06-20T00:40:06.524Z,1009.85
2017-06-20T00:41:06.516Z,1009.87
2017-06-20T00:42:06.500Z,1009.86
2017-06-20T00:43:06.489Z,1009.86
2017-06-20T00:44:06.481Z,1009.87
2017-06-20T00:45:06.468Z,1009.84
2017-06-20T00:46:06.456Z,1009.84
2017-06-20T00:47:06.443Z,1009.86
2017-06-20T00:48:06.457Z,1009.86
2017-06-20T00:49:06.421Z,1009.85
2017-06-20T00:50:06.410Z,1009.83
2017-06-20T00:51:06.404Z,1009.85
2017-06-20T00:52:06.390Z,1009.88
2017-06-20T00:53:06.380Z,1009.87
2017-06-20T00:54:06.365Z,1009.87
2017-06-20T00:55:06.360Z,1009.86
2017-06-20T00:56:06.341Z,1009.89
2017-06-20T00:57:06.334Z,1009.87
2017-06-20T00:58:06.321Z,1009.87
2017-06-20T00:59:06.311Z,1009.87
2017-06-20T01:00:06.301Z,1009.86
2017-06-20T01:01:06.287Z,1009.89
2017-06-20T01:02:06.279Z,1009.89
2017-06-20T01:03:06.265Z,1009.91
2017-06-20T01:04:06.257Z,1009.93
2017-06-20T01:05:06.244Z,1009.89
2017-06-20T01:06:06.231Z,1009.87
2017-06-20T01:07:06.223Z,1009.88
2017-06-20T01:08:06.212Z,1009.87
2017-06-20T01:09:06.200Z,1009.89
2017-06-20T01:10:06.188Z,1009.89
2017-06-20T01:11:06.180Z,1009.91
2017-06-20T01:12:06.164Z,1009.88
2017-06-20T01:13:06.151Z,1009.86
2017-06-20T01:14:06.143Z,1009.91
2017-06-20T01:15:06.131Z,1009.91
2017-06-20T01:16:06.120Z,1009.88
2017-06-20T01:17:06.108Z,1009.9
2017-06-20T01:18:06.095Z,1009.93
2017-06-20T01:19:06.087Z,1009.88
2017-06-20T01:20:06.072Z,1009.9
2017-06-20T01:21:06.062Z,1009.85
2017-06-20T01:22:06.052Z,1009.89
2017-06-20T01:23:06.041Z,1009.88
2017-06-20T01:24:06.033Z,1009.87
2017-06-20T01:25:06.015Z,1009.87
2017-06-20T01:26:06.007Z,1009.9
2017-06-20T01:27:05.991Z,1009.9
2017-06-20T01:28:06.073Z,1009.9
2017-06-20T01:29:05.969Z,1009.91
2017-06-20T01:30:05.961Z,1009.91
2017-06-20T01:31:05.949Z,1009.92
2017-06-20T01:32:05.935Z,1009.89
2017-06-20T01:33:05.923Z,1009.89
2017-06-20T01:34:05.962Z,1009.89
2017-06-20T01:35:05.900Z,1009.83
2017-06-20T01:36:05.943Z,1009.87
2017-06-20T01:37:05.878Z,1009.9
2017-06-20T01:38:05.915Z,1009.87
2017-06-20T01:39:05.850Z,1009.85
2017-06-20T01:40:05.890Z,1009.79
2017-06-20T01:41:05.830Z,1009.87
2017-06-20T01:42:05.820Z,1009.85
2017-06-20T01:43:05.806Z,1009.86
2017-06-20T01:44:05.944Z,1009.84
2017-06-20T01:45:05.792Z,1009.84
2017-06-20T01:46:05.773Z,1009.83
2017-06-20T01:47:05.760Z,1009.83
2017-06-20T01:48:05.750Z,1009.84
2017-06-20T01:49:05.733Z,1009.81
2017-06-20T01:50:05.722Z,1009.79
2017-06-20T01:51:05.712Z,1009.78
2017-06-20T01:52:05.701Z,1009.8
2017-06-20T01:53:05.690Z,1009.78
2017-06-20T01:54:05.672Z,1009.81
2017-06-20T01:55:05.664Z,1009.78
2017-06-20T01:56:05.651Z,1009.78
2017-06-20T01:57:05.640Z,1009.81
2017-06-20T01:58:05.632Z,1009.8
2017-06-20T01:59:05.623Z,1009.8
2017-06-20T02:00:05.610Z,1009.78
2017-06-20T02:01:05.591Z,1009.8
2017-06-20T02:02:05.578Z,1009.81
2017-06-20T02:03:05.573Z,1009.84
2017-06-20T02:04:05.561Z,1009.8
2017-06-20T02:05:05.548Z,1009.83
2017-06-20T02:06:05.537Z,1009.84
2017-06-20T02:07:05.520Z,1009.83
2017-06-20T02:08:05.513Z,1009.82
2017-06-20T02:09:05.503Z,1009.8
2017-06-20T02:10:05.486Z,1009.79
2017-06-20T02:11:05.478Z,1009.82
2017-06-20T02:12:05.460Z,1009.8
2017-06-20T02:13:05.453Z,1009.83
2017-06-20T02:14:05.441Z,1009.84
2017-06-20T02:15:05.433Z,1009.84
2017-06-20T02:16:05.422Z,1009.82
2017-06-20T02:17:05.406Z,1009.83
2017-06-20T02:18:05.390Z,1009.85
2017-06-20T02:19:05.381Z,1009.81
2017-06-20T02:20:05.373Z,1009.83
2017-06-20T02:21:05.356Z,1009.84
2017-06-20T02:22:05.343Z,1009.84
2017-06-20T02:23:05.333Z,1009.82
2017-06-20T02:24:05.323Z,1009.79
2017-06-20T02:25:05.311Z,1009.82
2017-06-20T02:26:05.301Z,1009.84
2017-06-20T02:27:05.280Z,1009.82
2017-06-20T02:28:05.269Z,1009.81
2017-06-20T02:29:05.263Z,1009.81
2017-06-20T02:30:05.244Z,1009.81
2017-06-20T02:31:05.237Z,1009.79
2017-06-20T02:32:05.222Z,1009.8
2017-06-20T02:33:05.214Z,1009.8
2017-06-20T02:34:05.201Z,1009.8
2017-06-20T02:35:05.191Z,1009.8
2017-06-20T02:36:05.174Z,1009.8
2017-06-20T02:37:05.164Z,1009.79
2017-06-20T02:38:05.151Z,1009.82
2017-06-20T02:39:05.140Z,1009.81
2017-06-20T02:40:05.134Z,1009.78
2017-06-20T02:41:05.118Z,1009.81
2017-06-20T02:42:05.100Z,1009.82
2017-06-20T02:43:05.092Z,1009.8
2017-06-20T02:44:05.081Z,1009.79
2017-06-20T02:45:05.067Z,1009.81
2017-06-20T02:46:05.056Z,1009.79
2017-06-20T02:47:05.047Z,1009.78
2017-06-20T02:48:05.035Z,1009.77
2017-06-20T02:49:05.017Z,1009.76
2017-06-20T02:50:05.012Z,1009.81
2017-06-20T02:51:04.998Z,1009.78
2017-06-20T02:52:04.982Z,1009.79
2017-06-20T02:53:04.972Z,1009.81
2017-06-20T02:54:04.957Z,1009.82
2017-06-20T02:55:04.953Z,1009.79
2017-06-20T02:56:04.932Z,1009.8
2017-06-20T02:57:04.921Z,1009.8
2017-06-20T02:58:04.912Z,1009.8
2017-06-20T02:59:04.897Z,1009.8
2017-06-20T03:00:04.890Z,1009.82
2017-06-20T03:01:04.874Z,1009.84
2017-06-20T03:02:04.861Z,1009.8
2017-06-20T03:03:04.852Z,1009.81
2017-06-20T03:04:04.842Z,1009.82
2017-06-20T03:05:04.829Z,1009.76
2017-06-20T03:06:04.819Z,1009.76
2017-06-20T03:07:04.801Z,1009.73
2017-06-20T03:08:04.788Z,1009.73
2017-06-20T03:09:04.784Z,1009.73
2017-06-20T03:10:04.765Z,1009.73
2017-06-20T03:11:04.749Z,1009.73
2017-06-20T03:12:04.738Z,1009.72
2017-06-20T03:13:04.729Z,1009.74
2017-06-20T03:14:04.714Z,1009.74
2017-06-20T03:15:04.702Z,1009.7
2017-06-20T03:16:05.624Z,1009.69
2017-06-20T03:17:04.676Z,1009.7
2017-06-20T03:18:04.667Z,1009.75
2017-06-20T03:19:04.649Z,1009.74
2017-06-20T03:20:04.644Z,1009.73
2017-06-20T03:21:04.633Z,1009.74
2017-06-20T03:22:04.613Z,1009.73
2017-06-20T03:23:04.617Z,1009.77
2017-06-20T03:24:04.589Z,1009.75
2017-06-20T03:25:04.581Z,1009.78
2017-06-20T03:26:04.571Z,1009.76
2017-06-20T03:27:04.553Z,1009.76
2017-06-20T03:28:04.544Z,1009.74
2017-06-20T03:29:04.534Z,1009.79
2017-06-20T03:30:04.521Z,1009.78
2017-06-20T03:31:04.513Z,1009.8
2017-06-20T03:32:04.493Z,1009.77
2017-06-20T03:33:04.482Z,1009.78
2017-06-20T03:34:04.473Z,1009.77
2017-06-20T03:35:04.458Z,1009.81
2017-06-20T03:36:04.455Z,1009.76
2017-06-20T03:37:04.426Z,1009.76
2017-06-20T03:38:04.417Z,1009.79
2017-06-20T03:39:04.402Z,1009.76
2017-06-20T03:40:04.476Z,1009.8
2017-06-20T03:41:04.382Z,1009.8
2017-06-20T03:42:04.422Z,1009.78
2017-06-20T03:43:04.361Z,1009.77
2017-06-20T03:44:04.419Z,1009.81
2017-06-20T03:45:04.333Z,1009.81
2017-06-20T03:46:04.322Z,1009.81
2017-06-20T03:47:04.307Z,1009.84
2017-06-20T03:48:04.391Z,1009.83
2017-06-20T03:49:04.281Z,1009.84
2017-06-20T03:50:04.279Z,1009.87
2017-06-20T03:51:04.250Z,1009.87
2017-06-20T03:52:04.291Z,1009.83
2017-06-20T03:53:04.229Z,1009.81
2017-06-20T03:54:04.319Z,1009.8
2017-06-20T03:55:04.206Z,1009.8
2017-06-20T03:56:04.192Z,1009.81
2017-06-20T03:57:04.179Z,1009.83
2017-06-20T03:58:04.223Z,1009.87
2017-06-20T03:59:04.208Z,1009.85
2017-06-20T04:00:04.141Z,1009.88
2017-06-20T04:01:04.132Z,1009.87
2017-06-20T04:02:04.272Z,1009.89
2017-06-20T04:03:04.101Z,1009.91
2017-06-20T04:04:04.091Z,1009.88
2017-06-20T04:05:04.080Z,1009.9
2017-06-20T04:06:04.067Z,1009.88
2017-06-20T04:07:04.054Z,1009.92
2017-06-20T04:08:04.037Z,1009.93
2017-06-20T04:09:04.032Z,1009.92
2017-06-20T04:10:04.013Z,1009.93
2017-06-20T04:11:04.002Z,1009.95
2017-06-20T04:12:03.989Z,1009.95
2017-06-20T04:13:03.981Z,1010
2017-06-20T04:14:03.963Z,1009.99
2017-06-20T04:15:03.955Z,1009.96
2017-06-20T04:16:03.941Z,1009.97
2017-06-20T04:17:03.930Z,1009.96
2017-06-20T04:18:03.923Z,1009.93
2017-06-20T04:19:03.901Z,1009.96
2017-06-20T04:20:03.889Z,1009.95
2017-06-20T04:21:03.881Z,1009.94
2017-06-20T04:22:03.861Z,1009.91
2017-06-20T04:23:03.853Z,1009.88
2017-06-20T04:24:03.842Z,1009.9
2017-06-20T04:25:03.829Z,1009.91
2017-06-20T04:26:03.813Z,1009.93
2017-06-20T04:27:03.799Z,1009.92
2017-06-20T04:28:03.793Z,1009.93
2017-06-20T04:29:03.781Z,1009.93
2017-06-20T04:30:03.761Z,1009.92
2017-06-20T04:31:03.750Z,1009.93
2017-06-20T04:32:03.735Z,1009.91
2017-06-20T04:33:03.733Z,1009.9
2017-06-20T04:34:03.709Z,1009.88
2017-06-20T04:35:03.701Z,1009.93
2017-06-20T04:36:03.684Z,1009.93
2017-06-20T04:37:03.691Z,1009.95
2017-06-20T04:38:03.661Z,1009.9
2017-06-20T04:39:03.648Z,1009.93
2017-06-20T04:40:03.642Z,1009.92
2017-06-20T04:41:03.628Z,1009.92
2017-06-20T04:42:03.613Z,1009.94
2017-06-20T04:43:03.597Z,1009.95
2017-06-20T04:44:03.584Z,1009.93
2017-06-20T04:45:03.570Z,1009.92
2017-06-20T04:46:03.560Z,1009.91
2017-06-20T04:47:03.551Z,1009.94
2017-06-20T04:48:03.535Z,1009.93
2017-06-20T04:49:03.520Z,1009.97
2017-06-20T04:50:03.510Z,1009.97
2017-06-20T04:51:03.502Z,1009.96
2017-06-20T04:52:03.492Z,1009.96
2017-06-20T04:53:03.471Z,1009.99
2017-06-20T04:54:03.463Z,1009.99
2017-06-20T04:55:03.453Z,1009.98
2017-06-20T04:56:03.445Z,1009.96
2017-06-20T04:57:03.422Z,1010
2017-06-20T04:58:03.410Z,1010.01
2017-06-20T04:59:03.398Z,1010.01
2017-06-20T05:00:03.386Z,1010
2017-06-20T05:01:03.372Z,1010.03
2017-06-20T05:02:03.378Z,1010.03
2017-06-20T05:03:03.348Z,1010.07
2017-06-20T05:04:03.330Z,1010.12
2017-06-20T05:05:03.320Z,1010.07
2017-06-20T05:06:03.309Z,1010.08
2017-06-20T05:07:03.295Z,1010.12
2017-06-20T05:08:03.282Z,1010.1
2017-06-20T05:09:03.275Z,1010.17
2017-06-20T05:10:03.261Z,1010.15
2017-06-20T05:11:03.251Z,1010.14
2017-06-20T05:12:03.241Z,1010.14
2017-06-20T05:13:03.221Z,1010.14
2017-06-20T05:14:03.222Z,1010.21
2017-06-20T05:15:03.204Z,1010.17
2017-06-20T05:16:03.193Z,1010.17
2017-06-20T05:17:03.173Z,1010.18
2017-06-20T05:18:03.162Z,1010.2
2017-06-20T05:19:03.150Z,1010.21
2017-06-20T05:20:03.139Z,1010.21
2017-06-20T05:21:03.120Z,1010.19
2017-06-20T05:22:03.110Z,1010.22
2017-06-20T05:23:03.098Z,1010.18
2017-06-20T05:24:03.085Z,1010.18
2017-06-20T05:25:03.076Z,1010.14
2017-06-20T05:26:03.062Z,1010.19
2017-06-20T05:27:03.051Z,1010.18
2017-06-20T05:28:03.045Z,1010.17
2017-06-20T05:29:03.023Z,1010.18
2017-06-20T05:30:03.012Z,1010.19
2017-06-20T05:31:03.002Z,1010.17
2017-06-20T05:32:02.991Z,1010.18
2017-06-20T05:33:02.980Z,1010.17
2017-06-20T05:34:02.960Z,1010.22
2017-06-20T05:35:02.952Z,1010.23
2017-06-20T05:36:02.943Z,1010.21
2017-06-20T05:37:02.929Z,1010.28
2017-06-20T05:38:02.920Z,1010.28
2017-06-20T05:39:02.901Z,1010.27
2017-06-20T05:40:02.891Z,1010.33
2017-06-20T05:41:02.883Z,1010.32
2017-06-20T05:42:02.866Z,1010.31
2017-06-20T05:43:02.859Z,1010.34
2017-06-20T05:44:02.841Z,1010.3
2017-06-20T05:45:02.830Z,1010.32
2017-06-20T05:46:02.820Z,1010.29
2017-06-20T05:47:02.815Z,1010.33
2017-06-20T05:48:02.797Z,1010.29
2017-06-20T05:49:02.794Z,1010.3
2017-06-20T05:50:02.770Z,1010.33
2017-06-20T05:51:02.764Z,1010.31
2017-06-20T05:52:02.755Z,1010.37
2017-06-20T05:53:02.742Z,1010.35
2017-06-20T05:54:02.734Z,1010.36
2017-06-20T05:55:02.723Z,1010.42
2017-06-20T05:56:02.709Z,1010.41
2017-06-20T05:57:02.691Z,1010.45
2017-06-20T05:58:02.690Z,1010.47
2017-06-20T05:59:02.673Z,1010.47
2017-06-20T06:00:02.657Z,1010.44
2017-06-20T06:01:02.650Z,1010.45
2017-06-20T06:02:02.636Z,1010.46
2017-06-20T06:03:02.634Z,1010.44
2017-06-20T06:04:02.623Z,1010.47
2017-06-20T06:05:02.604Z,1010.48
2017-06-20T06:06:02.593Z,1010.47
2017-06-20T06:07:02.575Z,1010.47
2017-06-20T06:08:02.572Z,1010.47
2017-06-20T06:09:02.556Z,1010.49
2017-06-20T06:10:02.556Z,1010.49
2017-06-20T06:11:02.540Z,1010.53
2017-06-20T06:12:02.524Z,1010.51
2017-06-20T06:13:02.512Z,1010.5
2017-06-20T06:14:02.502Z,1010.53
2017-06-20T06:15:02.494Z,1010.55
2017-06-20T06:16:02.483Z,1010.56
2017-06-20T06:17:02.462Z,1010.52
2017-06-20T06:18:02.463Z,1010.52
2017-06-20T06:19:02.446Z,1010.51
2017-06-20T06:20:02.582Z,1010.5
2017-06-20T06:21:02.423Z,1010.49
2017-06-20T06:22:02.443Z,1010.49
2017-06-20T06:23:02.414Z,1010.48
2017-06-20T06:24:02.393Z,1010.5
2017-06-20T06:25:02.382Z,1010.5
2017-06-20T06:26:02.370Z,1010.51
2017-06-20T06:27:02.365Z,1010.49
2017-06-20T06:28:02.343Z,1010.5
2017-06-20T06:29:02.332Z,1010.52
2017-06-20T06:30:02.321Z,1010.49
2017-06-20T06:31:02.315Z,1010.51
2017-06-20T06:32:02.304Z,1010.57
2017-06-20T06:33:02.292Z,1010.54
2017-06-20T06:34:02.281Z,1010.53
2017-06-20T06:35:02.276Z,1010.55
2017-06-20T06:36:02.265Z,1010.55
2017-06-20T06:37:02.248Z,1010.53
2017-06-20T06:38:02.241Z,1010.56
2017-06-20T06:39:02.226Z,1010.57
2017-06-20T06:40:02.216Z,1010.55
2017-06-20T06:41:02.214Z,1010.54
2017-06-20T06:42:02.200Z,1010.56
2017-06-20T06:43:02.183Z,1010.52
2017-06-20T06:44:02.176Z,1010.58
2017-06-20T06:45:02.163Z,1010.6
2017-06-20T06:46:02.153Z,1010.6
2017-06-20T06:47:02.144Z,1010.59
2017-06-20T06:48:02.133Z,1010.58
2017-06-20T06:49:02.124Z,1010.59
2017-06-20T06:50:02.108Z,1010.6
2017-06-20T06:51:02.102Z,1010.59
2017-06-20T06:52:02.090Z,1010.58
2017-06-20T06:53:02.085Z,1010.63
2017-06-20T06:54:02.066Z,1010.65
2017-06-20T06:55:02.092Z,1010.67
2017-06-20T06:56:02.054Z,1010.71
2017-06-20T06:57:02.038Z,1010.7
2017-06-20T06:58:02.028Z,1010.68
2017-06-20T06:59:02.020Z,1010.71
2017-06-20T07:00:02.027Z,1010.76
2017-06-20T07:01:02.014Z,1010.74
2017-06-20T07:02:01.990Z,1010.73
2017-06-20T07:03:01.980Z,1010.78
2017-06-20T07:04:01.966Z,1010.76
2017-06-20T07:05:02.010Z,1010.78
2017-06-20T07:06:01.952Z,1010.77
2017-06-20T07:07:01.936Z,1010.79
2017-06-20T07:08:01.929Z,1010.77
2017-06-20T07:09:01.913Z,1010.79
2017-06-20T07:10:01.904Z,1010.79
2017-06-20T07:11:01.894Z,1010.76
2017-06-20T07:12:01.883Z,1010.8
2017-06-20T07:13:01.873Z,1010.81
2017-06-20T07:14:01.863Z,1010.82
2017-06-20T07:15:01.858Z,1010.81
2017-06-20T07:16:01.844Z,1010.82
2017-06-20T07:17:01.836Z,1010.84
2017-06-20T07:18:01.855Z,1010.81
2017-06-20T07:19:01.821Z,1010.86
2017-06-20T07:20:01.807Z,1010.85
2017-06-20T07:21:01.797Z,1010.88
2017-06-20T07:22:01.790Z,1010.92
2017-06-20T07:23:01.783Z,1010.91
2017-06-20T07:24:01.767Z,1010.94
2017-06-20T07:25:01.759Z,1010.97
2017-06-20T07:26:01.750Z,1010.98
2017-06-20T07:27:01.742Z,1010.96
2017-06-20T07:28:01.832Z,1011.01
2017-06-20T07:29:01.728Z,1011.04
2017-06-20T07:30:01.711Z,1011
2017-06-20T07:31:01.732Z,1011.05
2017-06-20T07:32:01.693Z,1011.01
2017-06-20T07:33:01.690Z,1011.07
2017-06-20T07:34:01.676Z,1011.08
2017-06-20T07:35:01.663Z,1011.07
2017-06-20T07:36:01.655Z,1011.12
2017-06-20T07:37:01.650Z,1011.1
2017-06-20T07:38:01.643Z,1011.14
2017-06-20T07:39:01.630Z,1011.07
2017-06-20T07:40:01.621Z,1011.09
2017-06-20T07:41:01.614Z,1011.1
2017-06-20T07:42:01.609Z,1011.12
2017-06-20T07:43:01.595Z,1011.09
2017-06-20T07:44:01.585Z,1011.1
2017-06-20T07:45:01.574Z,1011.07
2017-06-20T07:46:01.565Z,1011.13
2017-06-20T07:47:01.555Z,1011.12
2017-06-20T07:48:01.546Z,1011.13
2017-06-20T07:49:01.542Z,1011.15
2017-06-20T07:50:01.530Z,1011.18
2017-06-20T07:51:01.523Z,1011.17
2017-06-20T07:52:01.513Z,1011.18
2017-06-20T07:53:01.505Z,1011.18
2017-06-20T07:54:01.494Z,1011.2
2017-06-20T07:55:01.489Z,1011.25
2017-06-20T07:56:01.477Z,1011.26
2017-06-20T07:57:01.469Z,1011.23
2017-06-20T07:58:01.460Z,1011.22
2017-06-20T07:59:01.450Z,1011.22
2017-06-20T08:00:01.445Z,1011.24
2017-06-20T08:01:01.432Z,1011.24
2017-06-20T08:02:01.424Z,1011.27
2017-06-20T08:03:01.418Z,1011.25
2017-06-20T08:04:01.406Z,1011.18
2017-06-20T08:05:01.402Z,1011.21
2017-06-20T08:06:01.394Z,1011.16
2017-06-20T08:07:01.382Z,1011.17
2017-06-20T08:08:01.373Z,1011.18
2017-06-20T08:09:01.372Z,1011.14
2017-06-20T08:10:01.359Z,1011.18
2017-06-20T08:11:01.354Z,1011.15
2017-06-20T08:12:01.344Z,1011.18
2017-06-20T08:13:01.335Z,1011.16
2017-06-20T08:14:01.326Z,1011.16
2017-06-20T08:15:01.320Z,1011.11
2017-06-20T08:16:01.315Z,1011.15
2017-06-20T08:17:01.311Z,1011.13
2017-06-20T08:18:01.294Z,1011.14
2017-06-20T08:19:01.319Z,1011.16
2017-06-20T08:20:01.283Z,1011.22
2017-06-20T08:21:01.272Z,1011.22
2017-06-20T08:22:01.266Z,1011.22
2017-06-20T08:23:01.256Z,1011.26
2017-06-20T08:24:01.248Z,1011.27
2017-06-20T08:25:01.238Z,1011.3
2017-06-20T08:26:01.234Z,1011.26
2017-06-20T08:27:01.227Z,1011.24
2017-06-20T08:28:01.219Z,1011.26
2017-06-20T08:29:01.212Z,1011.27
2017-06-20T08:30:01.203Z,1011.26
2017-06-20T08:31:01.201Z,1011.26
2017-06-20T08:32:01.190Z,1011.28
2017-06-20T08:33:01.192Z,1011.22
2017-06-20T08:34:01.179Z,1011.23
2017-06-20T08:35:01.170Z,1011.24
2017-06-20T08:36:01.165Z,1011.26
2017-06-20T08:37:01.159Z,1011.25
2017-06-20T08:38:01.149Z,1011.26
2017-06-20T08:39:01.138Z,1011.27
2017-06-20T08:40:01.135Z,1011.24
2017-06-20T08:41:01.127Z,1011.28
2017-06-20T08:42:01.121Z,1011.27
2017-06-20T08:43:01.109Z,1011.24
2017-06-20T08:44:01.106Z,1011.3
2017-06-20T08:45:01.097Z,1011.28
2017-06-20T08:46:01.089Z,1011.29
2017-06-20T08:47:01.081Z,1011.3
2017-06-20T08:48:01.076Z,1011.29
2017-06-20T08:49:01.068Z,1011.29
2017-06-20T08:50:01.058Z,1011.31
2017-06-20T08:51:01.056Z,1011.29
2017-06-20T08:52:01.048Z,1011.32
2017-06-20T08:53:01.045Z,1011.28
2017-06-20T08:54:01.040Z,1011.28
2017-06-20T08:55:01.032Z,1011.28
2017-06-20T08:56:01.018Z,1011.36
2017-06-20T08:57:01.011Z,1011.33
2017-06-20T08:58:01.008Z,1011.32
2017-06-20T08:59:01.007Z,1011.3
2017-06-20T09:00:00.997Z,1011.32
2017-06-20T09:01:00.991Z,1011.32
2017-06-20T09:02:00.989Z,1011.31
2017-06-20T09:03:00.976Z,1011.32
2017-06-20T09:04:00.969Z,1011.36
2017-06-20T09:05:00.965Z,1011.34
2017-06-20T09:06:00.960Z,1011.39
2017-06-20T09:07:00.960Z,1011.36
2017-06-20T09:08:00.952Z,1011.34
2017-06-20T09:09:01.039Z,1011.36
2017-06-20T09:10:00.932Z,1011.35
2017-06-20T09:11:00.929Z,1011.33
2017-06-20T09:12:00.944Z,1011.36
2017-06-20T09:13:00.918Z,1011.42
2017-06-20T09:14:01.013Z,1011.49
2017-06-20T09:15:00.903Z,1011.46
2017-06-20T09:16:00.897Z,1011.47
2017-06-20T09:17:00.897Z,1011.5
2017-06-20T09:18:00.888Z,1011.5
2017-06-20T09:19:00.881Z,1011.46
2017-06-20T09:20:00.877Z,1011.54
2017-06-20T09:21:00.877Z,1011.53
2017-06-20T09:22:00.873Z,1011.52
2017-06-20T09:23:00.858Z,1011.56
2017-06-20T09:24:00.854Z,1011.53
2017-06-20T09:25:00.851Z,1011.53
2017-06-20T09:26:00.848Z,1011.55
2017-06-20T09:27:00.844Z,1011.55
2017-06-20T09:28:00.839Z,1011.62
2017-06-20T09:29:00.838Z,1011.57
2017-06-20T09:30:00.829Z,1011.57
2017-06-20T09:31:00.825Z,1011.58
2017-06-20T09:32:00.819Z,1011.59
2017-06-20T09:33:00.822Z,1011.56
2017-06-20T09:34:00.808Z,1011.55
2017-06-20T09:35:00.810Z,1011.61
2017-06-20T09:36:00.802Z,1011.56
2017-06-20T09:37:00.797Z,1011.56
2017-06-20T09:38:00.795Z,1011.52
2017-06-20T09:39:00.791Z,1011.56
2017-06-20T09:40:00.790Z,1011.52
2017-06-20T09:41:00.798Z,1011.57
2017-06-20T09:42:00.883Z,1011.54
2017-06-20T09:43:00.776Z,1011.55
2017-06-20T09:44:00.773Z,1011.53
2017-06-20T09:45:00.771Z,1011.52
2017-06-20T09:46:00.766Z,1011.56
2017-06-20T09:47:00.830Z,1011.53
2017-06-20T09:48:00.759Z,1011.55
2017-06-20T09:49:00.758Z,1011.6
2017-06-20T09:50:00.758Z,1011.57
2017-06-20T09:51:00.800Z,1011.55
2017-06-20T09:52:00.749Z,1011.53
2017-06-20T09:53:00.749Z,1011.53
2017-06-20T09:54:00.746Z,1011.53
2017-06-20T09:55:00.742Z,1011.52
2017-06-20T09:56:00.737Z,1011.51
2017-06-20T09:57:00.736Z,1011.52
2017-06-20T09:58:00.738Z,1011.51
2017-06-20T09:59:00.732Z,1011.48
2017-06-20T10:00:00.738Z,1011.49
2017-06-20T10:01:00.731Z,1011.45
2017-06-20T10:02:00.739Z,1011.45
2017-06-20T10:03:00.728Z,1011.45
2017-06-20T10:04:00.729Z,1011.41
2017-06-20T10:05:00.729Z,1011.37
2017-06-20T10:06:00.724Z,1011.43
2017-06-20T10:07:00.718Z,1011.46
2017-06-20T10:08:00.720Z,1011.49
2017-06-20T10:09:00.717Z,1011.46
2017-06-20T10:10:00.732Z,1011.43
2017-06-20T10:11:00.729Z,1011.45
2017-06-20T10:12:00.722Z,1011.39
2017-06-20T10:13:00.716Z,1011.39
2017-06-20T10:14:00.721Z,1011.39
2017-06-20T10:15:00.809Z,1011.44
2017-06-20T10:16:00.761Z,1011.43
2017-06-20T10:17:00.709Z,1011.43
2017-06-20T10:18:00.711Z,1011.39
2017-06-20T10:19:00.709Z,1011.43
2017-06-20T10:20:00.711Z,1011.4
2017-06-20T10:21:00.700Z,1011.4
2017-06-20T10:22:00.699Z,1011.36
2017-06-20T10:23:00.698Z,1011.41
2017-06-20T10:24:00.697Z,1011.36
2017-06-20T10:25:00.697Z,1011.37
2017-06-20T10:26:00.697Z,1011.37
2017-06-20T10:27:00.700Z,1011.35
2017-06-20T10:28:00.690Z,1011.34
2017-06-20T10:29:00.689Z,1011.34
2017-06-20T10:30:00.699Z,1011.33
2017-06-20T10:31:00.692Z,1011.34
2017-06-20T10:32:00.687Z,1011.35
2017-06-20T10:33:00.682Z,1011.31
2017-06-20T10:34:00.693Z,1011.29
2017-06-20T10:35:00.680Z,1011.34
2017-06-20T10:36:00.681Z,1011.35
2017-06-20T10:37:00.686Z,1011.32
2017-06-20T10:38:00.687Z,1011.34
2017-06-20T10:39:00.683Z,1011.3
2017-06-20T10:40:00.682Z,1011.35
2017-06-20T10:41:00.672Z,1011.34
2017-06-20T10:42:00.667Z,1011.31
2017-06-20T10:43:00.693Z,1011.29
2017-06-20T10:44:00.666Z,1011.33
2017-06-20T10:45:00.659Z,1011.32
2017-06-20T10:46:00.656Z,1011.35
2017-06-20T10:47:00.711Z,1011.33
2017-06-20T10:48:00.710Z,1011.33
2017-06-20T10:49:00.650Z,1011.3
2017-06-20T10:50:00.649Z,1011.36
2017-06-20T10:51:00.652Z,1011.32
2017-06-20T10:52:00.643Z,1011.31
2017-06-20T10:53:00.647Z,1011.34
2017-06-20T10:54:00.638Z,1011.28
2017-06-20T10:55:00.631Z,1011.34
2017-06-20T10:56:00.628Z,1011.3
2017-06-20T10:57:00.623Z,1011.28
2017-06-20T10:58:00.630Z,1011.26
2017-06-20T10:59:00.620Z,1011.24
2017-06-20T11:00:00.620Z,1011.23
2017-06-20T11:01:00.622Z,1011.27
2017-06-20T11:02:00.609Z,1011.24
2017-06-20T11:03:00.609Z,1011.3
2017-06-20T11:04:00.608Z,1011.27
2017-06-20T11:05:00.606Z,1011.24
2017-06-20T11:06:00.598Z,1011.33
2017-06-20T11:07:00.597Z,1011.29
2017-06-20T11:08:00.600Z,1011.32
2017-06-20T11:09:00.590Z,1011.3
2017-06-20T11:10:00.590Z,1011.32
2017-06-20T11:11:00.591Z,1011.29
2017-06-20T11:12:00.590Z,1011.29
2017-06-20T11:13:00.577Z,1011.35
2017-06-20T11:14:00.574Z,1011.3
2017-06-20T11:15:00.579Z,1011.31
2017-06-20T11:16:00.569Z,1011.38
2017-06-20T11:17:00.568Z,1011.35
2017-06-20T11:18:00.559Z,1011.31
2017-06-20T11:19:00.556Z,1011.27
2017-06-20T11:20:00.558Z,1011.24
2017-06-20T11:21:00.551Z,1011.2
2017-06-20T11:22:00.550Z,1011.2
2017-06-20T11:23:00.546Z,1011.22
2017-06-20T11:24:00.540Z,1011.22
2017-06-20T11:25:00.542Z,1011.27
2017-06-20T11:26:00.540Z,1011.27
2017-06-20T11:27:00.532Z,1011.18
2017-06-20T11:28:00.543Z,1011.2
2017-06-20T11:29:00.530Z,1011.14
2017-06-20T11:30:00.526Z,1011.2
2017-06-20T11:31:00.519Z,1011.18
2017-06-20T11:32:00.520Z,1011.14
2017-06-20T11:33:00.512Z,1011.12
2017-06-20T11:34:00.510Z,1011.14
2017-06-20T11:35:00.510Z,1011.17
2017-06-20T11:36:00.502Z,1011.21
2017-06-20T11:37:00.507Z,1011.21
2017-06-20T11:38:00.504Z,1011.22
2017-06-20T11:39:00.567Z,1011.19
2017-06-20T11:40:00.483Z,1011.21
2017-06-20T11:41:00.479Z,1011.2
2017-06-20T11:42:00.482Z,1011.17
2017-06-20T11:43:00.579Z,1011.18
2017-06-20T11:44:00.469Z,1011.15
2017-06-20T11:45:00.518Z,1011.15
2017-06-20T11:46:00.461Z,1011.16
2017-06-20T11:47:00.459Z,1011.19
2017-06-20T11:48:00.456Z,1011.14
2017-06-20T11:49:00.449Z,1011.17
2017-06-20T11:50:00.456Z,1011.14
2017-06-20T11:51:00.440Z,1011.15
2017-06-20T11:52:00.440Z,1011.15
2017-06-20T11:53:00.438Z,1011.17
2017-06-20T11:54:00.429Z,1011.18
2017-06-20T11:55:00.424Z,1011.14
2017-06-20T11:56:00.439Z,1011.18
2017-06-20T11:57:00.419Z,1011.16
2017-06-20T11:58:00.418Z,1011.16
2017-06-20T11:59:00.409Z,1011.15
2017-06-20T12:00:00.409Z,1011.15
2017-06-20T12:01:00.399Z,1011.15
2017-06-20T12:02:00.394Z,1011.18
2017-06-20T12:03:00.397Z,1011.17
2017-06-20T12:04:00.397Z,1011.17
2017-06-20T12:05:00.392Z,1011.14
2017-06-20T12:06:00.381Z,1011.14
2017-06-20T12:07:00.381Z,1011.13
2017-06-20T12:08:00.369Z,1011.14
2017-06-20T12:09:00.381Z,1011.11